sensor_id;sensor_type;location;lat;lon;timestamp;P1;durP1;ratioP1;P2;durP2;ratioP2
54121;SDS011;40029;58.708;50.190;2023-11-19T00:01:52;3.15;;;1.55;;
54121;SDS011;40029;58.708;50.190;2023-11-19T00:04:41;3.13;;;1.80;;
54121;SDS011;40029;58.708;50.190;2023-11-19T00:07:12;4.03;;;1.50;;
54121;SDS011;40029;58.708;50.190;2023-11-19T00:09:44;4.57;;;1.67;;
54121;SDS011;40029;58.708;50.190;2023-11-19T00:12:15;3.13;;;1.75;;
54121;SDS011;40029;58.708;50.190;2023-11-19T00:14:46;3.45;;;2.05;;
54121;SDS011;40029;58.708;50.190;2023-11-19T00:17:17;4.25;;;1.60;;
54121;SDS011;40029;58.708;50.190;2023-11-19T00:19:49;5.07;;;2.15;;
54121;SDS011;40029;58.708;50.190;2023-11-19T00:22:41;2.55;;;1.30;;
54121;SDS011;40029;58.708;50.190;2023-11-19T00:25:12;5.28;;;2.30;;
54121;SDS011;40029;58.708;50.190;2023-11-19T00:27:44;5.05;;;2.50;;
54121;SDS011;40029;58.708;50.190;2023-11-19T00:30:15;5.63;;;1.92;;
54121;SDS011;40029;58.708;50.190;2023-11-19T00:32:47;2.88;;;1.80;;
54121;SDS011;40029;58.708;50.190;2023-11-19T00:35:18;5.45;;;2.45;;
54121;SDS011;40029;58.708;50.190;2023-11-19T00:38:08;3.40;;;1.58;;
54121;SDS011;40029;58.708;50.190;2023-11-19T00:40:39;2.42;;;1.70;;
54121;SDS011;40029;58.708;50.190;2023-11-19T00:43:11;4.65;;;2.15;;
54121;SDS011;40029;58.708;50.190;2023-11-19T00:45:42;3.80;;;2.08;;
54121;SDS011;40029;58.708;50.190;2023-11-19T00:48:32;2.97;;;1.48;;
54121;SDS011;40029;58.708;50.190;2023-11-19T00:51:03;4.38;;;1.70;;
54121;SDS011;40029;58.708;50.190;2023-11-19T00:53:53;4.55;;;1.63;;
54121;SDS011;40029;58.708;50.190;2023-11-19T00:56:25;2.30;;;1.55;;
54121;SDS011;40029;58.708;50.190;2023-11-19T00:58:56;7.82;;;2.08;;
54121;SDS011;40029;58.708;50.190;2023-11-19T01:01:27;5.80;;;2.22;;
54121;SDS011;40029;58.708;50.190;2023-11-19T01:03:59;4.38;;;1.85;;
54121;SDS011;40029;58.708;50.190;2023-11-19T01:06:30;3.00;;;1.55;;
54121;SDS011;40029;58.708;50.190;2023-11-19T01:09:02;3.03;;;1.77;;
54121;SDS011;40029;58.708;50.190;2023-11-19T01:11:34;5.13;;;2.25;;
54121;SDS011;40029;58.708;50.190;2023-11-19T01:14:05;3.17;;;1.63;;
54121;SDS011;40029;58.708;50.190;2023-11-19T01:16:36;3.25;;;1.83;;
54121;SDS011;40029;58.708;50.190;2023-11-19T01:19:08;5.43;;;2.65;;
54121;SDS011;40029;58.708;50.190;2023-11-19T01:21:39;5.18;;;2.22;;
54121;SDS011;40029;58.708;50.190;2023-11-19T01:24:10;5.45;;;1.88;;
54121;SDS011;40029;58.708;50.190;2023-11-19T01:27:02;2.70;;;1.35;;
54121;SDS011;40029;58.708;50.190;2023-11-19T01:29:33;4.25;;;2.00;;
54121;SDS011;40029;58.708;50.190;2023-11-19T01:32:22;5.45;;;1.52;;
54121;SDS011;40029;58.708;50.190;2023-11-19T01:34:56;5.55;;;1.95;;
54121;SDS011;40029;58.708;50.190;2023-11-19T01:37:27;4.80;;;1.55;;
54121;SDS011;40029;58.708;50.190;2023-11-19T01:39:59;3.15;;;1.67;;
54121;SDS011;40029;58.708;50.190;2023-11-19T01:42:30;20.77;;;5.43;;
54121;SDS011;40029;58.708;50.190;2023-11-19T01:45:08;3.35;;;1.90;;
54121;SDS011;40029;58.708;50.190;2023-11-19T01:47:58;3.60;;;1.75;;
54121;SDS011;40029;58.708;50.190;2023-11-19T01:50:34;4.80;;;2.53;;
54121;SDS011;40029;58.708;50.190;2023-11-19T01:53:06;5.38;;;2.03;;
54121;SDS011;40029;58.708;50.190;2023-11-19T01:55:38;9.32;;;3.22;;
54121;SDS011;40029;58.708;50.190;2023-11-19T01:58:09;9.30;;;2.47;;
54121;SDS011;40029;58.708;50.190;2023-11-19T02:00:40;3.70;;;2.05;;
54121;SDS011;40029;58.708;50.190;2023-11-19T02:03:12;4.50;;;2.33;;
54121;SDS011;40029;58.708;50.190;2023-11-19T02:05:44;5.82;;;3.35;;
54121;SDS011;40029;58.708;50.190;2023-11-19T02:08:19;4.20;;;2.53;;
54121;SDS011;40029;58.708;50.190;2023-11-19T02:10:50;7.35;;;2.80;;
54121;SDS011;40029;58.708;50.190;2023-11-19T02:13:26;6.55;;;3.40;;
54121;SDS011;40029;58.708;50.190;2023-11-19T02:15:58;4.63;;;2.05;;
54121;SDS011;40029;58.708;50.190;2023-11-19T02:18:30;5.15;;;2.03;;
54121;SDS011;40029;58.708;50.190;2023-11-19T02:21:01;4.35;;;2.00;;
54121;SDS011;40029;58.708;50.190;2023-11-19T02:23:33;4.40;;;2.25;;
54121;SDS011;40029;58.708;50.190;2023-11-19T02:28:53;5.70;;;1.92;;
54121;SDS011;40029;58.708;50.190;2023-11-19T02:31:24;3.40;;;2.00;;
54121;SDS011;40029;58.708;50.190;2023-11-19T02:33:55;5.97;;;2.35;;
54121;SDS011;40029;58.708;50.190;2023-11-19T02:36:26;7.07;;;2.90;;
54121;SDS011;40029;58.708;50.190;2023-11-19T02:38:57;9.38;;;3.42;;
54121;SDS011;40029;58.708;50.190;2023-11-19T02:41:29;13.38;;;3.17;;
54121;SDS011;40029;58.708;50.190;2023-11-19T02:44:00;9.85;;;4.32;;
54121;SDS011;40029;58.708;50.190;2023-11-19T02:46:32;11.25;;;4.22;;
54121;SDS011;40029;58.708;50.190;2023-11-19T02:49:03;9.75;;;3.00;;
54121;SDS011;40029;58.708;50.190;2023-11-19T02:51:34;7.85;;;3.63;;
54121;SDS011;40029;58.708;50.190;2023-11-19T02:54:05;6.03;;;1.98;;
54121;SDS011;40029;58.708;50.190;2023-11-19T02:56:36;4.93;;;3.25;;
54121;SDS011;40029;58.708;50.190;2023-11-19T02:59:09;11.40;;;3.08;;
54121;SDS011;40029;58.708;50.190;2023-11-19T03:01:57;5.22;;;2.28;;
54121;SDS011;40029;58.708;50.190;2023-11-19T03:04:30;5.18;;;2.25;;
54121;SDS011;40029;58.708;50.190;2023-11-19T03:07:01;6.20;;;2.42;;
54121;SDS011;40029;58.708;50.190;2023-11-19T03:09:33;9.57;;;3.75;;
54121;SDS011;40029;58.708;50.190;2023-11-19T03:12:24;11.43;;;3.97;;
54121;SDS011;40029;58.708;50.190;2023-11-19T03:14:57;17.20;;;5.22;;
54121;SDS011;40029;58.708;50.190;2023-11-19T03:17:28;39.50;;;10.55;;
54121;SDS011;40029;58.708;50.190;2023-11-19T03:20:17;11.27;;;3.92;;
54121;SDS011;40029;58.708;50.190;2023-11-19T03:22:48;10.57;;;3.90;;
54121;SDS011;40029;58.708;50.190;2023-11-19T03:25:21;7.80;;;2.75;;
54121;SDS011;40029;58.708;50.190;2023-11-19T03:27:52;29.77;;;9.07;;
54121;SDS011;40029;58.708;50.190;2023-11-19T03:30:24;41.78;;;13.18;;
54121;SDS011;40029;58.708;50.190;2023-11-19T03:32:58;27.13;;;8.77;;
54121;SDS011;40029;58.708;50.190;2023-11-19T03:35:31;30.80;;;9.13;;
54121;SDS011;40029;58.708;50.190;2023-11-19T03:38:03;21.92;;;7.93;;
54121;SDS011;40029;58.708;50.190;2023-11-19T03:40:34;41.72;;;9.65;;
54121;SDS011;40029;58.708;50.190;2023-11-19T03:43:06;32.17;;;7.43;;
54121;SDS011;40029;58.708;50.190;2023-11-19T03:45:55;24.33;;;5.30;;
54121;SDS011;40029;58.708;50.190;2023-11-19T03:48:46;33.90;;;7.65;;
54121;SDS011;40029;58.708;50.190;2023-11-19T03:51:18;21.55;;;5.05;;
54121;SDS011;40029;58.708;50.190;2023-11-19T03:54:07;34.95;;;6.53;;
54121;SDS011;40029;58.708;50.190;2023-11-19T03:56:38;28.13;;;6.40;;
54121;SDS011;40029;58.708;50.190;2023-11-19T03:59:10;19.83;;;5.32;;
54121;SDS011;40029;58.708;50.190;2023-11-19T04:01:41;23.08;;;6.18;;
54121;SDS011;40029;58.708;50.190;2023-11-19T04:04:12;24.98;;;5.72;;
54121;SDS011;40029;58.708;50.190;2023-11-19T04:06:44;44.13;;;10.20;;
54121;SDS011;40029;58.708;50.190;2023-11-19T04:09:15;17.80;;;5.30;;
54121;SDS011;40029;58.708;50.190;2023-11-19T04:11:47;16.02;;;3.97;;
54121;SDS011;40029;58.708;50.190;2023-11-19T04:14:18;7.78;;;3.30;;
54121;SDS011;40029;58.708;50.190;2023-11-19T04:16:50;14.43;;;5.72;;
54121;SDS011;40029;58.708;50.190;2023-11-19T04:19:21;23.02;;;7.55;;
54121;SDS011;40029;58.708;50.190;2023-11-19T04:21:53;22.30;;;7.65;;
54121;SDS011;40029;58.708;50.190;2023-11-19T04:24:24;10.27;;;4.30;;
54121;SDS011;40029;58.708;50.190;2023-11-19T04:26:55;26.05;;;5.88;;
54121;SDS011;40029;58.708;50.190;2023-11-19T04:29:26;47.03;;;9.45;;
54121;SDS011;40029;58.708;50.190;2023-11-19T04:31:58;12.43;;;3.05;;
54121;SDS011;40029;58.708;50.190;2023-11-19T04:34:32;9.85;;;3.58;;
54121;SDS011;40029;58.708;50.190;2023-11-19T04:37:03;39.40;;;7.40;;
54121;SDS011;40029;58.708;50.190;2023-11-19T04:39:35;13.57;;;4.28;;
54121;SDS011;40029;58.708;50.190;2023-11-19T04:42:07;7.70;;;3.67;;
54121;SDS011;40029;58.708;50.190;2023-11-19T04:44:38;9.57;;;4.03;;
54121;SDS011;40029;58.708;50.190;2023-11-19T04:47:09;17.10;;;4.85;;
54121;SDS011;40029;58.708;50.190;2023-11-19T04:49:41;19.30;;;5.97;;
54121;SDS011;40029;58.708;50.190;2023-11-19T04:52:15;14.85;;;4.80;;
54121;SDS011;40029;58.708;50.190;2023-11-19T04:54:46;13.30;;;4.97;;
54121;SDS011;40029;58.708;50.190;2023-11-19T04:57:18;14.82;;;4.47;;
54121;SDS011;40029;58.708;50.190;2023-11-19T04:59:49;14.32;;;4.10;;
54121;SDS011;40029;58.708;50.190;2023-11-19T05:02:21;10.13;;;3.40;;
54121;SDS011;40029;58.708;50.190;2023-11-19T05:04:52;11.85;;;4.57;;
54121;SDS011;40029;58.708;50.190;2023-11-19T05:07:23;11.68;;;3.38;;
54121;SDS011;40029;58.708;50.190;2023-11-19T05:09:54;10.52;;;3.78;;
54121;SDS011;40029;58.708;50.190;2023-11-19T05:12:44;12.43;;;3.97;;
54121;SDS011;40029;58.708;50.190;2023-11-19T05:15:15;7.95;;;3.55;;
54121;SDS011;40029;58.708;50.190;2023-11-19T05:17:46;18.85;;;6.07;;
54121;SDS011;40029;58.708;50.190;2023-11-19T05:20:17;15.10;;;4.25;;
54121;SDS011;40029;58.708;50.190;2023-11-19T05:22:49;9.80;;;3.50;;
54121;SDS011;40029;58.708;50.190;2023-11-19T05:25:22;12.30;;;5.07;;
54121;SDS011;40029;58.708;50.190;2023-11-19T05:27:53;22.27;;;7.25;;
54121;SDS011;40029;58.708;50.190;2023-11-19T05:30:24;22.70;;;6.85;;
54121;SDS011;40029;58.708;50.190;2023-11-19T05:33:14;13.23;;;4.63;;
54121;SDS011;40029;58.708;50.190;2023-11-19T05:35:45;30.48;;;7.00;;
54121;SDS011;40029;58.708;50.190;2023-11-19T05:38:16;26.35;;;6.57;;
54121;SDS011;40029;58.708;50.190;2023-11-19T05:40:47;29.70;;;7.07;;
54121;SDS011;40029;58.708;50.190;2023-11-19T05:43:19;24.45;;;6.85;;
54121;SDS011;40029;58.708;50.190;2023-11-19T05:45:50;24.60;;;6.75;;
54121;SDS011;40029;58.708;50.190;2023-11-19T05:48:21;21.67;;;7.25;;
54121;SDS011;40029;58.708;50.190;2023-11-19T05:51:11;38.63;;;8.02;;
54121;SDS011;40029;58.708;50.190;2023-11-19T05:53:43;14.60;;;4.82;;
54121;SDS011;40029;58.708;50.190;2023-11-19T05:56:16;18.35;;;6.03;;
54121;SDS011;40029;58.708;50.190;2023-11-19T05:58:52;18.85;;;5.53;;
54121;SDS011;40029;58.708;50.190;2023-11-19T06:01:23;9.43;;;4.25;;
54121;SDS011;40029;58.708;50.190;2023-11-19T06:03:54;11.65;;;4.60;;
54121;SDS011;40029;58.708;50.190;2023-11-19T06:06:25;9.00;;;2.00;;
54121;SDS011;40029;58.708;50.190;2023-11-19T06:08:56;11.13;;;4.47;;
54121;SDS011;40029;58.708;50.190;2023-11-19T06:11:27;5.75;;;3.00;;
54121;SDS011;40029;58.708;50.190;2023-11-19T06:13:59;8.77;;;2.80;;
54121;SDS011;40029;58.708;50.190;2023-11-19T06:16:31;12.52;;;3.83;;
54121;SDS011;40029;58.708;50.190;2023-11-19T06:19:02;14.27;;;5.15;;
54121;SDS011;40029;58.708;50.190;2023-11-19T06:21:33;13.27;;;5.05;;
54121;SDS011;40029;58.708;50.190;2023-11-19T06:24:06;14.60;;;6.00;;
54121;SDS011;40029;58.708;50.190;2023-11-19T06:26:37;7.70;;;3.28;;
54121;SDS011;40029;58.708;50.190;2023-11-19T06:29:09;9.30;;;4.50;;
54121;SDS011;40029;58.708;50.190;2023-11-19T06:31:58;10.57;;;5.03;;
54121;SDS011;40029;58.708;50.190;2023-11-19T06:34:30;10.85;;;4.22;;
54121;SDS011;40029;58.708;50.190;2023-11-19T06:37:03;19.95;;;7.70;;
54121;SDS011;40029;58.708;50.190;2023-11-19T06:39:34;11.10;;;4.88;;
54121;SDS011;40029;58.708;50.190;2023-11-19T06:42:06;13.82;;;6.10;;
54121;SDS011;40029;58.708;50.190;2023-11-19T06:44:38;10.35;;;4.30;;
54121;SDS011;40029;58.708;50.190;2023-11-19T06:47:09;7.60;;;3.88;;
54121;SDS011;40029;58.708;50.190;2023-11-19T06:49:43;7.90;;;2.30;;
54121;SDS011;40029;58.708;50.190;2023-11-19T06:52:16;5.50;;;2.95;;
54121;SDS011;40029;58.708;50.190;2023-11-19T06:54:47;10.20;;;4.50;;
54121;SDS011;40029;58.708;50.190;2023-11-19T06:57:18;4.60;;;3.08;;
54121;SDS011;40029;58.708;50.190;2023-11-19T06:59:51;7.63;;;4.15;;
54121;SDS011;40029;58.708;50.190;2023-11-19T07:02:22;10.57;;;3.55;;
54121;SDS011;40029;58.708;50.190;2023-11-19T07:04:53;21.58;;;5.43;;
54121;SDS011;40029;58.708;50.190;2023-11-19T07:07:25;8.82;;;3.35;;
54121;SDS011;40029;58.708;50.190;2023-11-19T07:09:57;7.88;;;3.58;;
54121;SDS011;40029;58.708;50.190;2023-11-19T07:12:28;6.15;;;3.30;;
54121;SDS011;40029;58.708;50.190;2023-11-19T07:14:59;6.63;;;3.42;;
54121;SDS011;40029;58.708;50.190;2023-11-19T07:17:31;9.13;;;3.75;;
54121;SDS011;40029;58.708;50.190;2023-11-19T07:20:02;6.25;;;2.75;;
54121;SDS011;40029;58.708;50.190;2023-11-19T07:22:54;13.98;;;4.88;;
54121;SDS011;40029;58.708;50.190;2023-11-19T07:25:27;11.88;;;6.63;;
54121;SDS011;40029;58.708;50.190;2023-11-19T07:27:58;8.77;;;3.35;;
54121;SDS011;40029;58.708;50.190;2023-11-19T07:30:29;10.18;;;3.53;;
54121;SDS011;40029;58.708;50.190;2023-11-19T07:33:19;9.32;;;3.53;;
54121;SDS011;40029;58.708;50.190;2023-11-19T07:35:50;8.65;;;2.85;;
54121;SDS011;40029;58.708;50.190;2023-11-19T07:38:22;15.20;;;4.05;;
54121;SDS011;40029;58.708;50.190;2023-11-19T07:40:53;10.27;;;4.45;;
54121;SDS011;40029;58.708;50.190;2023-11-19T07:43:24;7.15;;;2.90;;
54121;SDS011;40029;58.708;50.190;2023-11-19T07:45:55;5.72;;;3.10;;
54121;SDS011;40029;58.708;50.190;2023-11-19T07:48:45;8.07;;;4.05;;
54121;SDS011;40029;58.708;50.190;2023-11-19T07:51:19;5.57;;;3.53;;
54121;SDS011;40029;58.708;50.190;2023-11-19T07:54:08;10.77;;;4.45;;
54121;SDS011;40029;58.708;50.190;2023-11-19T07:56:39;17.55;;;6.70;;
54121;SDS011;40029;58.708;50.190;2023-11-19T07:59:10;7.57;;;3.70;;
54121;SDS011;40029;58.708;50.190;2023-11-19T08:01:42;14.05;;;6.78;;
54121;SDS011;40029;58.708;50.190;2023-11-19T08:04:13;12.13;;;6.20;;
54121;SDS011;40029;58.708;50.190;2023-11-19T08:06:44;10.10;;;5.05;;
54121;SDS011;40029;58.708;50.190;2023-11-19T08:09:16;21.75;;;7.95;;
54121;SDS011;40029;58.708;50.190;2023-11-19T08:11:47;25.40;;;8.85;;
54121;SDS011;40029;58.708;50.190;2023-11-19T08:14:18;45.40;;;16.55;;
54121;SDS011;40029;58.708;50.190;2023-11-19T08:16:49;22.98;;;8.88;;
54121;SDS011;40029;58.708;50.190;2023-11-19T08:19:20;16.42;;;5.95;;
54121;SDS011;40029;58.708;50.190;2023-11-19T08:21:52;13.73;;;5.43;;
54121;SDS011;40029;58.708;50.190;2023-11-19T08:24:23;14.95;;;5.63;;
54121;SDS011;40029;58.708;50.190;2023-11-19T08:27:12;17.30;;;6.18;;
54121;SDS011;40029;58.708;50.190;2023-11-19T08:29:43;19.45;;;6.93;;
54121;SDS011;40029;58.708;50.190;2023-11-19T08:32:15;6.47;;;2.97;;
54121;SDS011;40029;58.708;50.190;2023-11-19T08:34:46;7.90;;;4.13;;
54121;SDS011;40029;58.708;50.190;2023-11-19T08:37:17;10.80;;;4.88;;
54121;SDS011;40029;58.708;50.190;2023-11-19T08:39:54;6.70;;;3.45;;
54121;SDS011;40029;58.708;50.190;2023-11-19T08:42:44;8.30;;;3.30;;
54121;SDS011;40029;58.708;50.190;2023-11-19T08:45:15;10.10;;;4.55;;
54121;SDS011;40029;58.708;50.190;2023-11-19T08:47:46;9.73;;;4.10;;
54121;SDS011;40029;58.708;50.190;2023-11-19T08:50:35;9.00;;;3.38;;
54121;SDS011;40029;58.708;50.190;2023-11-19T08:53:06;8.32;;;3.40;;
54121;SDS011;40029;58.708;50.190;2023-11-19T08:55:37;8.68;;;5.10;;
54121;SDS011;40029;58.708;50.190;2023-11-19T08:58:27;8.98;;;3.70;;
54121;SDS011;40029;58.708;50.190;2023-11-19T09:00:58;12.13;;;4.90;;
54121;SDS011;40029;58.708;50.190;2023-11-19T09:03:31;12.85;;;4.93;;
54121;SDS011;40029;58.708;50.190;2023-11-19T09:06:02;15.38;;;5.10;;
54121;SDS011;40029;58.708;50.190;2023-11-19T09:08:33;10.90;;;4.38;;
54121;SDS011;40029;58.708;50.190;2023-11-19T09:11:06;26.30;;;9.18;;
54121;SDS011;40029;58.708;50.190;2023-11-19T09:13:39;30.80;;;9.68;;
54121;SDS011;40029;58.708;50.190;2023-11-19T09:16:11;52.13;;;15.70;;
54121;SDS011;40029;58.708;50.190;2023-11-19T09:18:43;51.97;;;13.80;;
54121;SDS011;40029;58.708;50.190;2023-11-19T09:21:33;30.75;;;8.05;;
54121;SDS011;40029;58.708;50.190;2023-11-19T09:24:07;30.65;;;9.38;;
54121;SDS011;40029;58.708;50.190;2023-11-19T09:26:56;19.75;;;6.90;;
54121;SDS011;40029;58.708;50.190;2023-11-19T09:29:28;12.80;;;5.18;;
54121;SDS011;40029;58.708;50.190;2023-11-19T09:32:03;16.50;;;6.53;;
54121;SDS011;40029;58.708;50.190;2023-11-19T09:34:34;27.85;;;8.23;;
54121;SDS011;40029;58.708;50.190;2023-11-19T09:37:06;43.35;;;12.60;;
54121;SDS011;40029;58.708;50.190;2023-11-19T09:39:38;38.20;;;10.80;;
54121;SDS011;40029;58.708;50.190;2023-11-19T09:42:09;38.92;;;8.98;;
54121;SDS011;40029;58.708;50.190;2023-11-19T09:44:41;18.38;;;5.72;;
54121;SDS011;40029;58.708;50.190;2023-11-19T09:47:13;20.15;;;7.47;;
54121;SDS011;40029;58.708;50.190;2023-11-19T09:49:45;18.30;;;6.45;;
54121;SDS011;40029;58.708;50.190;2023-11-19T09:52:16;10.95;;;4.70;;
54121;SDS011;40029;58.708;50.190;2023-11-19T09:54:49;15.50;;;6.95;;
54121;SDS011;40029;58.708;50.190;2023-11-19T09:57:20;15.70;;;6.75;;
54121;SDS011;40029;58.708;50.190;2023-11-19T09:59:51;13.00;;;5.13;;
54121;SDS011;40029;58.708;50.190;2023-11-19T10:02:24;12.38;;;5.50;;
54121;SDS011;40029;58.708;50.190;2023-11-19T10:04:57;16.98;;;5.93;;
54121;SDS011;40029;58.708;50.190;2023-11-19T10:07:30;24.02;;;8.60;;
54121;SDS011;40029;58.708;50.190;2023-11-19T10:10:01;28.80;;;9.38;;
54121;SDS011;40029;58.708;50.190;2023-11-19T10:12:36;12.15;;;5.38;;
54121;SDS011;40029;58.708;50.190;2023-11-19T10:15:07;22.83;;;7.65;;
54121;SDS011;40029;58.708;50.190;2023-11-19T10:17:50;27.75;;;8.02;;
54121;SDS011;40029;58.708;50.190;2023-11-19T10:20:22;19.77;;;7.40;;
54121;SDS011;40029;58.708;50.190;2023-11-19T10:22:54;32.72;;;9.25;;
54121;SDS011;40029;58.708;50.190;2023-11-19T10:25:27;11.65;;;4.68;;
54121;SDS011;40029;58.708;50.190;2023-11-19T10:27:59;11.02;;;4.45;;
54121;SDS011;40029;58.708;50.190;2023-11-19T10:30:31;12.32;;;5.38;;
54121;SDS011;40029;58.708;50.190;2023-11-19T10:33:07;24.17;;;8.63;;
54121;SDS011;40029;58.708;50.190;2023-11-19T10:38:25;25.95;;;11.20;;
54121;SDS011;40029;58.708;50.190;2023-11-19T10:41:26;20.70;;;7.18;;
54121;SDS011;40029;58.708;50.190;2023-11-19T10:44:32;32.38;;;11.65;;
54121;SDS011;40029;58.708;50.190;2023-11-19T10:47:07;24.02;;;10.02;;
54121;SDS011;40029;58.708;50.190;2023-11-19T10:49:39;14.93;;;6.30;;
54121;SDS011;40029;58.708;50.190;2023-11-19T10:52:11;13.82;;;5.68;;
54121;SDS011;40029;58.708;50.190;2023-11-19T10:54:48;11.23;;;4.93;;
54121;SDS011;40029;58.708;50.190;2023-11-19T10:57:21;13.10;;;5.35;;
54121;SDS011;40029;58.708;50.190;2023-11-19T11:00:02;17.20;;;6.75;;
54121;SDS011;40029;58.708;50.190;2023-11-19T11:02:41;11.73;;;5.47;;
54121;SDS011;40029;58.708;50.190;2023-11-19T11:05:34;16.63;;;8.15;;
54121;SDS011;40029;58.708;50.190;2023-11-19T11:08:06;15.30;;;6.75;;
54121;SDS011;40029;58.708;50.190;2023-11-19T11:10:40;18.73;;;8.60;;
54121;SDS011;40029;58.708;50.190;2023-11-19T11:13:33;16.30;;;6.40;;
54121;SDS011;40029;58.708;50.190;2023-11-19T11:16:24;26.10;;;9.25;;
54121;SDS011;40029;58.708;50.190;2023-11-19T11:18:56;22.65;;;7.45;;
54121;SDS011;40029;58.708;50.190;2023-11-19T11:21:28;27.70;;;8.65;;
54121;SDS011;40029;58.708;50.190;2023-11-19T11:26:53;30.33;;;8.27;;
54121;SDS011;40029;58.708;50.190;2023-11-19T11:29:56;44.58;;;12.18;;
54121;SDS011;40029;58.708;50.190;2023-11-19T11:32:51;33.63;;;10.10;;
54121;SDS011;40029;58.708;50.190;2023-11-19T11:35:35;25.00;;;7.15;;
54121;SDS011;40029;58.708;50.190;2023-11-19T11:38:17;17.55;;;7.90;;
54121;SDS011;40029;58.708;50.190;2023-11-19T11:43:50;20.42;;;6.78;;
54121;SDS011;40029;58.708;50.190;2023-11-19T11:49:04;15.65;;;6.60;;
54121;SDS011;40029;58.708;50.190;2023-11-19T11:51:58;25.58;;;8.77;;
54121;SDS011;40029;58.708;50.190;2023-11-19T11:54:31;21.58;;;8.48;;
54121;SDS011;40029;58.708;50.190;2023-11-19T11:57:10;12.90;;;5.05;;
54121;SDS011;40029;58.708;50.190;2023-11-19T11:59:46;24.60;;;8.00;;
54121;SDS011;40029;58.708;50.190;2023-11-19T12:02:36;23.70;;;7.95;;
54121;SDS011;40029;58.708;50.190;2023-11-19T12:05:08;34.38;;;11.95;;
54121;SDS011;40029;58.708;50.190;2023-11-19T12:07:44;28.58;;;10.25;;
54121;SDS011;40029;58.708;50.190;2023-11-19T12:10:45;36.42;;;10.45;;
54121;SDS011;40029;58.708;50.190;2023-11-19T12:13:20;21.60;;;9.38;;
54121;SDS011;40029;58.708;50.190;2023-11-19T12:18:30;11.30;;;5.38;;
54121;SDS011;40029;58.708;50.190;2023-11-19T12:21:02;18.65;;;6.43;;
54121;SDS011;40029;58.708;50.190;2023-11-19T12:23:43;15.37;;;6.60;;
54121;SDS011;40029;58.708;50.190;2023-11-19T12:26:35;17.73;;;6.43;;
54121;SDS011;40029;58.708;50.190;2023-11-19T12:29:08;29.63;;;10.27;;
54121;SDS011;40029;58.708;50.190;2023-11-19T12:31:43;18.60;;;6.53;;
54121;SDS011;40029;58.708;50.190;2023-11-19T12:34:15;19.02;;;6.68;;
54121;SDS011;40029;58.708;50.190;2023-11-19T12:36:47;24.20;;;8.70;;
54121;SDS011;40029;58.708;50.190;2023-11-19T12:39:18;13.55;;;5.40;;
54121;SDS011;40029;58.708;50.190;2023-11-19T12:41:50;16.80;;;6.15;;
54121;SDS011;40029;58.708;50.190;2023-11-19T12:44:22;42.53;;;9.45;;
54121;SDS011;40029;58.708;50.190;2023-11-19T12:47:02;35.63;;;11.50;;
54121;SDS011;40029;58.708;50.190;2023-11-19T12:49:33;42.03;;;12.65;;
54121;SDS011;40029;58.708;50.190;2023-11-19T12:52:11;59.00;;;14.13;;
54121;SDS011;40029;58.708;50.190;2023-11-19T12:54:43;30.00;;;8.90;;
54121;SDS011;40029;58.708;50.190;2023-11-19T12:57:15;30.92;;;9.40;;
54121;SDS011;40029;58.708;50.190;2023-11-19T12:59:55;38.72;;;10.35;;
54121;SDS011;40029;58.708;50.190;2023-11-19T13:02:46;43.85;;;12.52;;
54121;SDS011;40029;58.708;50.190;2023-11-19T13:05:29;11.60;;;4.85;;
54121;SDS011;40029;58.708;50.190;2023-11-19T13:10:50;44.83;;;9.95;;
54121;SDS011;40029;58.708;50.190;2023-11-19T13:13:22;32.05;;;8.48;;
54121;SDS011;40029;58.708;50.190;2023-11-19T13:16:01;32.38;;;9.88;;
54121;SDS011;40029;58.708;50.190;2023-11-19T13:18:39;23.27;;;7.50;;
54121;SDS011;40029;58.708;50.190;2023-11-19T13:21:10;44.50;;;12.48;;
54121;SDS011;40029;58.708;50.190;2023-11-19T13:24:00;37.80;;;10.73;;
54121;SDS011;40029;58.708;50.190;2023-11-19T13:26:31;36.58;;;12.35;;
54121;SDS011;40029;58.708;50.190;2023-11-19T13:29:21;12.93;;;5.20;;
54121;SDS011;40029;58.708;50.190;2023-11-19T13:32:11;12.60;;;5.82;;
54121;SDS011;40029;58.708;50.190;2023-11-19T13:34:42;13.30;;;6.30;;
54121;SDS011;40029;58.708;50.190;2023-11-19T13:37:13;14.05;;;5.88;;
54121;SDS011;40029;58.708;50.190;2023-11-19T13:39:44;25.77;;;7.68;;
54121;SDS011;40029;58.708;50.190;2023-11-19T13:42:15;43.55;;;14.05;;
54121;SDS011;40029;58.708;50.190;2023-11-19T13:44:46;48.55;;;13.65;;
54121;SDS011;40029;58.708;50.190;2023-11-19T13:47:17;37.60;;;13.35;;
54121;SDS011;40029;58.708;50.190;2023-11-19T13:49:48;45.70;;;13.68;;
54121;SDS011;40029;58.708;50.190;2023-11-19T13:52:38;34.58;;;11.93;;
54121;SDS011;40029;58.708;50.190;2023-11-19T13:55:10;51.67;;;16.30;;
54121;SDS011;40029;58.708;50.190;2023-11-19T13:57:42;51.42;;;18.58;;
54121;SDS011;40029;58.708;50.190;2023-11-19T14:00:14;49.92;;;19.92;;
54121;SDS011;40029;58.708;50.190;2023-11-19T14:02:49;37.28;;;15.15;;
54121;SDS011;40029;58.708;50.190;2023-11-19T14:05:20;24.15;;;10.90;;
54121;SDS011;40029;58.708;50.190;2023-11-19T14:07:51;10.85;;;3.92;;
54121;SDS011;40029;58.708;50.190;2023-11-19T14:10:24;9.07;;;4.22;;
54121;SDS011;40029;58.708;50.190;2023-11-19T14:12:55;7.32;;;4.35;;
54121;SDS011;40029;58.708;50.190;2023-11-19T14:15:26;15.95;;;6.38;;
54121;SDS011;40029;58.708;50.190;2023-11-19T14:17:59;13.20;;;5.68;;
54121;SDS011;40029;58.708;50.190;2023-11-19T14:20:30;8.10;;;4.10;;
54121;SDS011;40029;58.708;50.190;2023-11-19T14:23:01;14.15;;;6.35;;
54121;SDS011;40029;58.708;50.190;2023-11-19T14:25:51;10.70;;;5.65;;
54121;SDS011;40029;58.708;50.190;2023-11-19T14:28:22;11.98;;;4.72;;
54121;SDS011;40029;58.708;50.190;2023-11-19T14:30:53;15.40;;;6.57;;
54121;SDS011;40029;58.708;50.190;2023-11-19T14:33:27;24.95;;;8.73;;
54121;SDS011;40029;58.708;50.190;2023-11-19T14:35:58;21.10;;;6.97;;
54121;SDS011;40029;58.708;50.190;2023-11-19T14:38:48;18.30;;;6.95;;
54121;SDS011;40029;58.708;50.190;2023-11-19T14:41:19;14.52;;;5.93;;
54121;SDS011;40029;58.708;50.190;2023-11-19T14:43:50;16.85;;;5.80;;
54121;SDS011;40029;58.708;50.190;2023-11-19T14:46:21;18.63;;;7.15;;
54121;SDS011;40029;58.708;50.190;2023-11-19T14:48:52;24.70;;;8.57;;
54121;SDS011;40029;58.708;50.190;2023-11-19T14:51:23;28.10;;;9.38;;
54121;SDS011;40029;58.708;50.190;2023-11-19T14:53:54;24.48;;;8.13;;
54121;SDS011;40029;58.708;50.190;2023-11-19T14:56:43;23.35;;;7.15;;
54121;SDS011;40029;58.708;50.190;2023-11-19T14:59:15;23.98;;;8.18;;
54121;SDS011;40029;58.708;50.190;2023-11-19T15:01:46;25.83;;;8.23;;
54121;SDS011;40029;58.708;50.190;2023-11-19T15:04:36;36.15;;;10.15;;
54121;SDS011;40029;58.708;50.190;2023-11-19T15:07:07;20.83;;;6.50;;
54121;SDS011;40029;58.708;50.190;2023-11-19T15:09:38;20.98;;;7.00;;
54121;SDS011;40029;58.708;50.190;2023-11-19T15:12:10;32.38;;;10.77;;
54121;SDS011;40029;58.708;50.190;2023-11-19T15:14:41;36.50;;;12.02;;
54121;SDS011;40029;58.708;50.190;2023-11-19T15:17:12;35.80;;;12.07;;
54121;SDS011;40029;58.708;50.190;2023-11-19T15:19:43;23.63;;;7.70;;
54121;SDS011;40029;58.708;50.190;2023-11-19T15:22:16;18.73;;;6.65;;
54121;SDS011;40029;58.708;50.190;2023-11-19T15:24:48;31.00;;;10.57;;
54121;SDS011;40029;58.708;50.190;2023-11-19T15:27:19;14.48;;;6.68;;